Saltar para o conteúdo principal

Madeira, Funchal, Lido

ID 1240971 · 32.6366, -16.9356 mapa

Última leitura · 2026-05-09 19:00 (Europe/Lisbon)

Temperatura
17.6 °C
Humidade
73 %
Pressão
Precipitação
0.0 mm
Radiação
1,149 W/m²
Velocidade do vento
Direcção do vento
Sem vento

Histórico de 24 horas

Hora (Europe/Lisbon) Temperatura Humidade Pressão Chuva Vento Direcção
2026-05-09 19:00 17.6 °C 73 % 0.0 mm
2026-05-09 18:00 17.5 °C 74 % 0.0 mm
2026-05-09 17:00 17.7 °C 72 % 0.0 mm
2026-05-09 16:00 18.0 °C 68 % 0.0 mm
2026-05-09 15:00 18.1 °C 66 % 0.0 mm
2026-05-09 14:00 17.8 °C 69 % 0.0 mm
2026-05-09 13:00 17.9 °C 70 % 0.0 mm
2026-05-09 12:00 17.7 °C 71 % 0.0 mm
2026-05-09 11:00 17.5 °C 72 % 0.0 mm
2026-05-09 10:00 17.2 °C 72 % 0.1 mm
2026-05-09 09:00 16.7 °C 75 % 0.0 mm
2026-05-09 08:00 16.2 °C 72 % 0.0 mm
2026-05-09 07:00 16.3 °C 76 % 0.0 mm
2026-05-09 06:00 16.5 °C 75 % 0.0 mm
2026-05-09 05:00 16.0 °C 79 % 0.2 mm
2026-05-09 04:00 16.6 °C 78 % 0.0 mm
2026-05-09 03:00 16.8 °C 75 % 0.0 mm
2026-05-09 02:00 16.8 °C 77 % 0.0 mm
2026-05-09 01:00 17.1 °C 75 % 0.0 mm
2026-05-09 00:00 17.2 °C 75 % 0.0 mm
2026-05-08 23:00 17.3 °C 74 % 0.0 mm
2026-05-08 22:00 17.2 °C 76 % 0.1 mm
2026-05-08 21:00 16.7 °C 82 % 0.0 mm
2026-05-08 20:00 17.1 °C 75 % 1.0 mm